Time;durP1;ratioP1;P1;durP2;ratioP2;P2;SDS_P1;SDS_P2;PMS_P1;PMS_P2;Temp;Humidity;BMP_temperature;BMP_pressure;BME280_temperature;BME280_humidity;BME280_pressure;Samples;Min_cycle;Max_cycle;Signal;HPM_P1;HPM_P2
2023/07/17 00:00:16;;;;;;;11.60;4.07;;;;;;;-142.57;41.47;115900.28;6259799;23;20019;-87
2023/07/17 00:02:44;;;;;;;20.60;4.30;;;;;;;-142.57;41.93;115900.28;6234917;23;20044;-88
2023/07/17 00:05:13;;;;;;;16.08;4.63;;;;;;;-142.57;41.79;115900.28;6260120;23;20019;-88
2023/07/17 00:07:41;;;;;;;20.73;4.07;;;;;;;-142.57;41.21;115900.28;6259312;23;20014;-86
2023/07/17 00:10:10;;;;;;;13.70;4.50;;;;;;;-142.57;41.14;115900.28;6236464;23;20035;-88
2023/07/17 00:12:38;;;;;;;16.77;3.88;;;;;;;-142.57;40.68;115900.28;6230992;23;20040;-88
2023/07/17 00:15:05;;;;;;;14.00;4.22;;;;;;;-142.57;40.14;115900.28;6155828;23;20008;-85
2023/07/17 00:17:31;;;;;;;17.05;4.30;;;;;;;-142.57;40.10;115900.28;6254536;23;20038;-88
2023/07/17 00:19:57;;;;;;;11.90;3.80;;;;;;;-142.57;40.18;115900.28;6204507;23;20416;-87
2023/07/17 00:22:26;;;;;;;16.42;4.28;;;;;;;-142.57;40.56;115900.28;6254689;23;20016;-85
2023/07/17 00:24:52;;;;;;;18.90;4.43;;;;;;;-142.57;40.82;115900.28;6227272;23;20043;-86
2023/07/17 00:27:19;;;;;;;18.25;4.32;;;;;;;-142.57;40.85;115900.28;6254035;23;20012;-88
2023/07/17 00:29:45;;;;;;;14.20;4.28;;;;;;;-142.57;40.56;115900.28;6228168;23;20024;-88
2023/07/17 00:32:14;;;;;;;21.10;4.40;;;;;;;-142.57;40.53;115900.28;6255247;23;20081;-87
2023/07/17 00:34:40;;;;;;;14.30;4.43;;;;;;;-142.57;40.22;115900.28;6229775;23;20469;-89
2023/07/17 00:37:10;;;;;;;16.40;4.28;;;;;;;-142.57;40.59;115900.28;6231159;23;20066;-87
2023/07/17 00:39:37;;;;;;;15.90;4.22;;;;;;;-142.57;40.75;115900.28;6257796;23;20063;-88
2023/07/17 00:42:04;;;;;;;16.65;3.90;;;;;;;-142.57;41.21;115900.28;6232729;23;20000;-88
2023/07/17 00:44:31;;;;;;;15.90;4.70;;;;;;;-142.57;40.90;115900.28;6225340;23;20012;-88
2023/07/17 00:47:04;;;;;;;18.42;4.68;;;;;;;-142.57;41.67;115900.28;6231744;23;20028;-90
2023/07/17 00:49:32;;;;;;;18.85;4.65;;;;;;;-142.57;41.84;115900.28;6228157;23;20019;-89
2023/07/17 00:51:59;;;;;;;19.45;4.43;;;;;;;-142.57;41.83;115900.28;6232014;23;20079;-89
2023/07/17 00:54:28;;;;;;;18.15;4.57;;;;;;;-142.57;42.20;115900.28;6258575;23;20080;-90
2023/07/17 00:56:55;;;;;;;18.23;4.50;;;;;;;-142.57;41.98;115900.28;6227772;23;20031;-88
2023/07/17 00:59:25;;;;;;;18.15;4.60;;;;;;;-142.57;42.12;115900.28;6227285;23;20032;-89
2023/07/17 01:01:51;;;;;;;22.38;4.50;;;;;;;-142.57;41.58;115900.28;6254555;23;20008;-87
2023/07/17 01:04:20;;;;;;;20.83;4.72;;;;;;;-142.57;41.73;115900.28;6229021;23;20004;-86
2023/07/17 01:06:45;;;;;;;19.80;4.78;;;;;;;-142.57;41.84;115900.28;6230142;23;20123;-86
2023/07/17 01:09:13;;;;;;;16.05;4.45;;;;;;;-142.57;41.71;115900.28;6229983;23;20039;-88
2023/07/17 01:11:39;;;;;;;18.10;4.05;;;;;;;-142.57;41.20;115900.28;6230137;23;20143;-90
2023/07/17 01:14:04;;;;;;;11.43;4.30;;;;;;;-142.57;41.18;115900.28;6258079;23;20012;-88
2023/07/17 01:16:30;;;;;;;21.85;4.40;;;;;;;-142.57;41.27;115900.28;6259347;23;20000;-88
2023/07/17 01:18:56;;;;;;;16.90;4.30;;;;;;;-142.57;41.07;115900.28;6233334;23;20050;-88
2023/07/17 01:21:26;;;;;;;28.50;4.93;;;;;;;-142.57;41.54;115900.28;6256989;23;20019;-87
2023/07/17 01:23:54;;;;;;;13.87;4.73;;;;;;;-142.57;41.03;115900.28;6180859;23;20023;-90
2023/07/17 01:26:20;;;;;;;19.13;4.40;;;;;;;-142.57;40.46;115900.28;6228450;23;20004;-87
2023/07/17 01:28:47;;;;;;;15.27;4.35;;;;;;;-142.57;40.25;115900.28;6207607;23;20008;-86
2023/07/17 01:31:13;;;;;;;17.33;3.80;;;;;;;-142.57;40.09;115900.28;6213067;23;20023;-85
2023/07/17 01:33:39;;;;;;;18.77;4.63;;;;;;;-142.57;39.86;115900.28;6235164;23;20027;-88
2023/07/17 01:36:05;;;;;;;14.00;4.22;;;;;;;-142.57;39.58;115900.28;6233512;23;20012;-86
2023/07/17 01:38:35;;;;;;;13.63;4.10;;;;;;;-142.57;40.20;115900.28;6236545;23;20335;-85
2023/07/17 01:41:01;;;;;;;11.40;3.70;;;;;;;-142.57;39.96;115900.28;6238692;23;20335;-85
2023/07/17 01:43:32;;;;;;;14.43;4.45;;;;;;;-142.57;39.26;115900.28;6261066;23;20012;-87
2023/07/17 01:45:57;;;;;;;24.20;4.30;;;;;;;-142.57;39.42;115900.28;6261404;23;20008;-88
2023/07/17 01:48:23;;;;;;;13.40;3.50;;;;;;;-142.57;39.53;115900.28;6257710;23;20005;-88
2023/07/17 01:50:52;;;;;;;21.90;4.25;;;;;;;-142.57;39.84;115900.28;6234215;23;20012;-86
2023/07/17 01:53:20;;;;;;;16.65;4.45;;;;;;;-142.57;40.17;115900.28;6263821;23;20020;-88
2023/07/17 01:55:47;;;;;;;22.02;4.60;;;;;;;-142.57;40.50;115900.28;6237870;23;20081;-86
2023/07/17 01:58:12;;;;;;;16.48;3.92;;;;;;;-142.57;40.53;115900.28;6235776;23;20008;-85
2023/07/17 02:00:46;;;;;;;13.85;3.80;;;;;;;-142.57;40.54;115900.28;6263571;23;20012;-87
2023/07/17 02:03:14;;;;;;;13.65;4.15;;;;;;;-142.57;41.09;115900.28;6264059;23;20004;-85
2023/07/17 02:05:43;;;;;;;15.77;4.20;;;;;;;-142.57;40.74;115900.28;6264252;23;20000;-87
2023/07/17 02:08:09;;;;;;;18.98;4.38;;;;;;;-142.57;40.66;115900.28;6212960;23;20022;-88
2023/07/17 02:10:40;;;;;;;22.38;4.60;;;;;;;-142.57;40.52;115900.28;6236010;23;20012;-87
2023/07/17 02:13:10;;;;;;;13.02;3.92;;;;;;;-142.57;40.81;115900.28;6261675;23;20012;-87
2023/07/17 02:15:36;;;;;;;16.05;4.43;;;;;;;-142.57;40.99;115900.28;6234454;23;20016;-88
2023/07/17 02:18:02;;;;;;;18.55;4.00;;;;;;;-142.57;41.08;115900.28;6246784;23;20008;-87
2023/07/17 02:20:28;;;;;;;20.05;4.63;;;;;;;-142.57;41.07;115900.28;6257485;23;20069;-87
2023/07/17 02:22:54;;;;;;;13.73;3.50;;;;;;;-142.57;41.05;115900.28;6231165;23;20113;-86
2023/07/17 02:25:20;;;;;;;11.52;4.00;;;;;;;-142.57;41.06;115900.28;6229692;23;20115;-88
2023/07/17 02:27:45;;;;;;;15.68;4.00;;;;;;;-142.57;41.20;115900.28;6230882;23;20016;-87
2023/07/17 02:30:11;;;;;;;11.50;3.83;;;;;;;-142.57;41.32;115900.28;6260208;23;20004;-87
2023/07/17 02:32:40;;;;;;;10.73;3.97;;;;;;;-142.57;41.45;115900.28;6261655;23;20015;-87
2023/07/17 02:35:06;;;;;;;14.73;4.18;;;;;;;-142.57;41.78;115900.28;6261936;23;20012;-87
2023/07/17 02:37:35;;;;;;;12.70;3.88;;;;;;;-142.57;41.67;115900.28;6238216;23;20030;-86
2023/07/17 02:40:12;;;;;;;19.95;4.55;;;;;;;-142.57;42.03;115900.28;6262755;23;20262;-87
2023/07/17 02:42:38;;;;;;;14.68;4.03;;;;;;;-142.57;42.03;115900.28;6234350;23;20175;-87
2023/07/17 02:45:09;;;;;;;16.77;3.95;;;;;;;-142.57;42.22;115900.28;6261447;23;20005;-88
2023/07/17 02:47:36;;;;;;;15.35;3.80;;;;;;;-142.57;42.44;115900.28;6262265;23;20008;-88
2023/07/17 02:50:19;;;;;;;16.58;3.92;;;;;;;-142.57;42.10;115900.28;6260810;23;20309;-87
2023/07/17 02:52:45;;;;;;;18.15;4.40;;;;;;;-142.57;42.36;115900.28;6232595;23;20036;-88
2023/07/17 02:55:10;;;;;;;16.35;3.72;;;;;;;-142.57;42.33;115900.28;6206582;23;20020;-88
2023/07/17 02:57:43;;;;;;;17.77;4.38;;;;;;;-142.57;42.56;115900.28;6260373;23;20062;-87
2023/07/17 03:00:17;;;;;;;18.55;4.15;;;;;;;-142.57;42.88;115900.28;6260326;23;20051;-87
2023/07/17 03:03:04;;;;;;;;;;;;;;;-142.57;42.80;115900.28;6263509;23;20028;-87
2023/07/17 03:05:30;;;;;;;18.13;3.97;;;;;;;-142.57;42.74;115900.28;6209823;23;19919;-86
2023/07/17 03:07:57;;;;;;;16.52;3.97;;;;;;;-142.57;43.20;115900.28;6234444;23;20086;-88
2023/07/17 03:10:25;;;;;;;9.27;3.65;;;;;;;-142.57;43.53;115900.28;6260162;23;20023;-88
2023/07/17 03:12:51;;;;;;;25.58;4.68;;;;;;;-142.57;43.97;115900.28;6207236;23;20052;-86
2023/07/17 03:15:17;;;;;;;17.70;4.13;;;;;;;-142.57;44.46;115900.28;6231266;23;20012;-88
2023/07/17 03:17:45;;;;;;;24.02;4.18;;;;;;;-142.57;44.35;115900.28;6205356;23;20051;-89
2023/07/17 03:20:13;;;;;;;14.05;3.95;;;;;;;-142.57;44.43;115900.28;6261586;23;20017;-87
2023/07/17 03:22:39;;;;;;;15.70;3.97;;;;;;;-142.57;44.76;115900.28;6231994;23;20074;-87
2023/07/17 03:25:06;;;;;;;16.65;3.85;;;;;;;-142.57;44.69;115900.28;6203703;23;20012;-87
2023/07/17 03:27:32;;;;;;;15.32;3.53;;;;;;;-142.57;44.28;115900.28;6227537;23;20064;-88
2023/07/17 03:30:02;;;;;;;16.98;3.88;;;;;;;-142.57;44.58;115900.28;6252645;23;20012;-86
2023/07/17 03:32:36;;;;;;;14.93;4.07;;;;;;;-142.57;45.00;115900.28;6226791;23;20007;-86
2023/07/17 03:35:02;;;;;;;13.68;4.72;;;;;;;-142.57;45.12;115900.28;6227258;23;20012;-84
2023/07/17 03:37:27;;;;;;;16.40;4.55;;;;;;;-142.57;45.44;115900.28;6228815;23;20011;-84
2023/07/17 03:39:53;;;;;;;11.98;3.42;;;;;;;-142.57;45.19;115900.28;6226916;23;20050;-85
2023/07/17 03:42:18;;;;;;;17.38;3.67;;;;;;;-142.57;45.69;115900.28;6199588;23;20074;-86
2023/07/17 03:44:44;;;;;;;10.32;3.47;;;;;;;-142.57;46.04;115900.28;6224549;23;20016;-86
2023/07/17 03:47:11;;;;;;;11.80;3.67;;;;;;;-142.57;46.16;115900.28;6227177;23;20008;-86
2023/07/17 03:49:38;;;;;;;13.23;3.85;;;;;;;-142.57;46.34;115900.28;6204578;23;20091;-87
2023/07/17 03:52:05;;;;;;;14.98;4.10;;;;;;;-142.57;47.21;115900.28;6253365;23;20488;-85
2023/07/17 03:54:34;;;;;;;16.90;3.97;;;;;;;-142.57;47.29;115900.28;6253851;23;20019;-88
2023/07/17 03:57:00;;;;;;;16.40;3.95;;;;;;;-142.57;47.34;115900.28;6204254;23;20023;-87
2023/07/17 03:59:49;;;;;;;14.82;4.45;;;;;;;-142.57;46.94;115900.28;6231277;23;20382;-84
2023/07/17 04:02:19;;;;;;;16.42;4.30;;;;;;;-142.57;47.02;115900.28;6233266;23;20008;-86
2023/07/17 04:04:45;;;;;;;12.02;4.07;;;;;;;-142.57;47.42;115900.28;6181982;23;20012;-84
2023/07/17 04:07:20;;;;;;;15.98;4.63;;;;;;;-142.57;47.61;115900.28;6255795;23;20439;-84
2023/07/17 04:09:52;;;;;;;18.17;3.95;;;;;;;-142.57;47.87;115900.28;6230176;23;20415;-85
2023/07/17 04:12:18;;;;;;;17.73;4.28;;;;;;;-142.57;47.81;115900.28;6230348;23;20008;-84
2023/07/17 04:14:44;;;;;;;11.38;4.07;;;;;;;-142.57;48.46;115900.28;6230257;23;20004;-86
2023/07/17 04:17:13;;;;;;;14.70;3.67;;;;;;;-142.57;48.21;115900.28;6226774;23;20240;-85
2023/07/17 04:19:38;;;;;;;14.20;4.20;;;;;;;-142.57;47.70;115900.28;6198326;23;20332;-87
2023/07/17 04:22:04;;;;;;;15.93;4.30;;;;;;;-142.57;47.92;115900.28;6250499;23;20018;-86
2023/07/17 04:24:30;;;;;;;16.15;3.88;;;;;;;-142.57;48.40;115900.28;6222129;23;20105;-83
2023/07/17 04:26:55;;;;;;;17.63;4.32;;;;;;;-142.57;48.51;115900.28;6221325;23;20019;-87
2023/07/17 04:29:22;;;;;;;19.05;4.30;;;;;;;-142.57;47.96;115900.28;6221151;23;20106;-87
2023/07/17 04:31:48;;;;;;;18.88;4.72;;;;;;;-142.57;48.19;115900.28;6222271;23;20042;-86
2023/07/17 04:34:15;;;;;;;27.90;4.57;;;;;;;-142.57;48.66;115900.28;6221307;23;20074;-85
2023/07/17 04:36:41;;;;;;;15.48;4.13;;;;;;;-142.57;49.00;115900.28;6246230;23;20004;-85
2023/07/17 04:39:07;;;;;;;12.90;4.28;;;;;;;-142.57;49.08;115900.28;6220773;23;20363;-86
2023/07/17 04:41:33;;;;;;;20.75;4.47;;;;;;;-142.57;49.95;115900.28;6248132;23;20008;-84
2023/07/17 04:43:59;;;;;;;19.67;4.47;;;;;;;-142.57;50.10;115900.28;6221375;23;20140;-86
2023/07/17 04:46:25;;;;;;;17.73;4.38;;;;;;;-142.57;49.67;115900.28;6248165;23;20019;-85
2023/07/17 04:48:51;;;;;;;17.63;4.10;;;;;;;-142.57;50.73;115900.28;6221158;23;20015;-86
2023/07/17 04:51:16;;;;;;;16.23;4.55;;;;;;;-142.57;50.98;115900.28;6220784;23;20004;-85
2023/07/17 04:53:42;;;;;;;23.33;4.57;;;;;;;-142.57;51.02;115900.28;6221874;23;20092;-88
2023/07/17 04:56:08;;;;;;;16.25;4.18;;;;;;;-142.57;50.33;115900.28;6220304;23;20064;-85
2023/07/17 04:58:33;;;;;;;15.32;4.63;;;;;;;-142.57;50.56;115900.28;6196426;23;20023;-85
2023/07/17 05:01:06;;;;;;;17.13;4.75;;;;;;;-142.57;51.06;115900.28;6220932;23;20023;-85
2023/07/17 05:03:33;;;;;;;;;;;;;;;-142.57;51.23;115900.28;6222621;23;20008;-86
2023/07/17 05:06:00;;;;;;;25.13;4.47;;;;;;;-142.57;51.42;115900.28;6223084;23;19911;-85
2023/07/17 05:08:26;;;;;;;27.70;4.78;;;;;;;-142.57;51.26;115900.28;6226264;23;20077;-86
2023/07/17 05:10:53;;;;;;;20.85;4.60;;;;;;;-142.57;52.67;115900.28;6225205;23;20019;-84
2023/07/17 05:13:19;;;;;;;22.17;4.40;;;;;;;-142.57;52.04;115900.28;6251796;23;20061;-84
2023/07/17 05:15:45;;;;;;;25.73;5.05;;;;;;;-142.57;52.27;115900.28;6226225;23;20343;-86
2023/07/17 05:18:11;;;;;;;26.48;5.00;;;;;;;-142.57;52.49;115900.28;6226001;23;20107;-86
2023/07/17 05:20:36;;;;;;;18.40;4.10;;;;;;;-142.57;51.53;115900.28;6224657;23;20070;-84
2023/07/17 05:23:02;;;;;;;20.80;4.18;;;;;;;-142.57;50.66;115900.28;6221591;23;20019;-87
2023/07/17 05:25:27;;;;;;;24.23;4.38;;;;;;;-142.57;50.14;115900.28;6248581;23;20542;-86
2023/07/17 05:27:53;;;;;;;20.88;4.80;;;;;;;-142.57;49.11;115900.28;6221620;23;20074;-85
2023/07/17 05:30:19;;;;;;;19.23;4.18;;;;;;;-142.57;49.35;115900.28;6248252;23;20015;-85
2023/07/17 05:32:44;;;;;;;15.07;4.30;;;;;;;-142.57;49.89;115900.28;6251235;23;20019;-85
2023/07/17 05:35:10;;;;;;;16.33;4.32;;;;;;;-142.57;49.85;115900.28;6198033;23;20462;-86
2023/07/17 05:37:36;;;;;;;25.63;4.63;;;;;;;-142.57;49.62;115900.28;6222058;23;20012;-89
2023/07/17 05:40:05;;;;;;;12.90;4.50;;;;;;;-142.57;49.46;115900.28;6220286;23;20020;-83
2023/07/17 05:42:30;;;;;;;24.92;4.85;;;;;;;-142.57;48.45;115900.28;6219756;23;20044;-84
2023/07/17 05:44:59;;;;;;;11.80;3.88;;;;;;;-142.57;48.90;115900.28;6219894;23;20004;-85
2023/07/17 05:47:25;;;;;;;15.23;4.22;;;;;;;-142.57;48.49;115900.28;6219996;23;20078;-85
2023/07/17 05:49:51;;;;;;;24.65;4.70;;;;;;;-142.57;48.18;115900.28;6220926;23;20012;-85
2023/07/17 05:52:17;;;;;;;19.50;4.35;;;;;;;-142.57;47.27;115900.28;6222771;23;20012;-88
2023/07/17 05:54:43;;;;;;;12.07;4.03;;;;;;;-142.57;46.47;115900.28;6200044;23;20008;-87
2023/07/17 05:57:08;;;;;;;20.50;3.88;;;;;;;-142.57;45.54;115900.28;6249384;23;20019;-84
2023/07/17 05:59:35;;;;;;;16.40;3.75;;;;;;;-142.57;45.78;115900.28;6234109;23;20064;-84
2023/07/17 06:02:00;;;;;;;17.98;4.82;;;;;;;-142.57;46.92;115900.28;6237848;23;19992;-80
2023/07/17 06:04:27;;;;;;;24.02;4.50;;;;;;;-142.57;45.57;115900.28;6238956;23;20018;-83
2023/07/17 06:06:53;;;;;;;17.50;4.13;;;;;;;-142.57;44.73;115900.28;6267879;23;20035;-84
2023/07/17 06:09:18;;;;;;;19.23;4.55;;;;;;;-142.57;42.88;115900.28;6266262;23;20017;-81
2023/07/17 06:11:44;;;;;;;17.15;5.22;;;;;;;-142.57;42.65;115900.28;6257336;23;20139;-84
2023/07/17 06:14:09;;;;;;;18.40;4.70;;;;;;;-142.57;41.75;115900.28;6253145;23;20066;-85
2023/07/17 06:16:35;;;;;;;23.80;4.70;;;;;;;-142.57;41.45;115900.28;6256116;23;20277;-86
2023/07/17 06:19:03;;;;;;;22.90;4.47;;;;;;;-142.57;40.25;115900.28;6251580;23;20012;-88
2023/07/17 06:21:31;;;;;;;16.13;4.25;;;;;;;-142.57;38.68;115900.28;6225944;23;20012;-86
2023/07/17 06:23:57;;;;;;;17.25;3.88;;;;;;;-142.57;37.56;115900.28;6234400;23;20008;-83
2023/07/17 06:26:23;;;;;;;21.88;4.22;;;;;;;-142.57;35.71;115900.28;6261231;23;20008;-87
2023/07/17 06:28:50;;;;;;;18.42;4.55;;;;;;;-142.57;34.25;115900.28;6258217;23;20066;-87
2023/07/17 06:31:16;;;;;;;11.90;3.97;;;;;;;-142.57;34.88;115900.28;6259276;23;20016;-83
2023/07/17 06:33:42;;;;;;;12.52;3.97;;;;;;;-142.57;34.17;115900.28;6257423;23;20451;-85
2023/07/17 06:36:07;;;;;;;24.75;4.63;;;;;;;-142.57;33.51;115900.28;6258733;23;20009;-84
2023/07/17 06:38:33;;;;;;;13.55;4.00;;;;;;;-142.57;34.22;115900.28;6258141;23;20031;-84
2023/07/17 06:40:58;;;;;;;13.50;4.10;;;;;;;-142.57;33.78;115900.28;6258836;23;20080;-87
2023/07/17 06:43:26;;;;;;;16.73;4.50;;;;;;;-142.57;33.18;115900.28;6257859;23;20378;-84
2023/07/17 06:45:52;;;;;;;14.02;3.72;;;;;;;-142.57;33.54;115900.28;6257600;23;20094;-83
2023/07/17 06:48:17;;;;;;;15.85;4.43;;;;;;;-142.57;34.72;115900.28;6260474;23;20375;-85
2023/07/17 06:50:48;;;;;;;14.07;3.58;;;;;;;-142.57;35.86;115900.28;6265352;23;20012;-83
2023/07/17 06:53:14;;;;;;;31.92;3.90;;;;;;;-142.57;35.55;115900.28;6217097;23;20046;-86
2023/07/17 06:55:40;;;;;;;38.08;5.07;;;;;;;-142.57;35.79;115900.28;6218250;23;19992;-88
2023/07/17 06:58:05;;;;;;;15.75;3.83;;;;;;;-142.57;35.06;115900.28;6217274;23;20084;-82
2023/07/17 07:00:33;;;;;;;14.07;3.88;;;;;;;-142.57;34.82;115900.28;6215804;23;20016;-87
2023/07/17 07:03:03;;;;;;;13.40;3.95;;;;;;;-142.57;36.29;115900.28;6241818;23;20012;-86
2023/07/17 07:05:34;;;;;;;21.70;4.40;;;;;;;-142.57;38.61;115900.28;6239693;23;20038;-87
2023/07/17 07:08:06;;;;;;;16.42;4.00;;;;;;;-142.57;35.99;115900.28;6239715;23;20046;-87
2023/07/17 07:10:32;;;;;;;22.60;4.78;;;;;;;-142.57;34.50;115900.28;6241079;23;20012;-86
2023/07/17 07:13:01;;;;;;;14.05;4.05;;;;;;;-142.57;34.49;115900.28;6210724;23;20062;-86
2023/07/17 07:15:26;;;;;;;18.08;4.32;;;;;;;-142.57;33.00;115900.28;6222091;23;20055;-87
2023/07/17 07:17:55;;;;;;;15.52;3.80;;;;;;;-142.57;31.84;115900.28;6247920;23;20031;-84
2023/07/17 07:20:20;;;;;;;20.67;4.25;;;;;;;-142.57;34.15;115900.28;6248071;23;20012;-83
2023/07/17 07:22:46;;;;;;;16.15;3.85;;;;;;;-142.57;34.61;115900.28;6247544;23;20015;-85
2023/07/17 07:25:11;;;;;;;13.63;4.50;;;;;;;-142.57;34.04;115900.28;6222151;23;20012;-87
2023/07/17 07:27:37;;;;;;;14.48;3.95;;;;;;;-142.57;34.51;115900.28;6221065;23;20008;-86
2023/07/17 07:30:04;;;;;;;24.88;4.72;;;;;;;-142.57;33.81;115900.28;6248330;23;20053;-85
2023/07/17 07:32:29;;;;;;;16.05;3.67;;;;;;;-142.57;34.67;115900.28;6221561;23;20091;-84
2023/07/17 07:34:55;;;;;;;21.58;5.22;;;;;;;-142.57;34.73;115900.28;6249358;23;20523;-86
2023/07/17 07:37:20;;;;;;;18.23;4.32;;;;;;;-142.57;33.25;115900.28;6249767;23;20019;-84
2023/07/17 07:39:46;;;;;;;25.25;3.83;;;;;;;-142.57;33.33;115900.28;6250040;23;20008;-86
2023/07/17 07:42:12;;;;;;;15.70;3.90;;;;;;;-142.57;33.41;115900.28;6250146;23;20008;-84
2023/07/17 07:44:37;;;;;;;18.58;4.18;;;;;;;-142.57;34.32;115900.28;6247771;23;20082;-83
2023/07/17 07:47:05;;;;;;;18.55;4.68;;;;;;;-142.57;33.62;115900.28;6247386;23;20024;-85
2023/07/17 07:49:30;;;;;;;28.88;4.35;;;;;;;-142.57;34.01;115900.28;6221218;23;20020;-85
2023/07/17 07:51:56;;;;;;;23.48;4.63;;;;;;;-142.57;33.68;115900.28;6223922;23;20139;-86
2023/07/17 07:54:21;;;;;;;19.67;4.05;;;;;;;-142.57;33.82;115900.28;6231046;23;20011;-84
2023/07/17 07:56:46;;;;;;;28.05;4.60;;;;;;;-142.57;34.00;115900.28;6249829;23;20008;-84
2023/07/17 07:59:12;;;;;;;14.82;4.70;;;;;;;-142.57;34.58;115900.28;6222668;23;20008;-84
2023/07/17 08:01:37;;;;;;;21.80;3.92;;;;;;;-142.57;33.53;115900.28;6250985;23;20001;-86
2023/07/17 08:04:03;;;;;;;21.27;5.28;;;;;;;-142.57;34.21;115900.28;6250250;23;20012;-86
2023/07/17 08:06:29;;;;;;;27.10;4.20;;;;;;;-142.57;34.03;115900.28;6250205;23;20008;-84
2023/07/17 08:08:55;;;;;;;18.58;4.70;;;;;;;-142.57;35.17;115900.28;6253401;23;20015;-87
2023/07/17 08:11:22;;;;;;;18.40;4.38;;;;;;;-142.57;34.45;115900.28;6258172;23;20012;-87
2023/07/17 08:13:47;;;;;;;19.58;4.75;;;;;;;-142.57;33.82;115900.28;6248359;23;20080;-85
2023/07/17 08:16:13;;;;;;;21.58;4.68;;;;;;;-142.57;32.71;115900.28;6248432;23;20392;-83
2023/07/17 08:18:38;;;;;;;15.93;4.40;;;;;;;-142.57;30.80;115900.28;6220663;23;20004;-83
2023/07/17 08:21:03;;;;;;;24.33;4.70;;;;;;;-142.57;30.77;115900.28;6220049;23;20020;-84
2023/07/17 08:23:29;;;;;;;22.90;5.05;;;;;;;-142.57;31.83;115900.28;6246905;23;20111;-84
2023/07/17 08:25:55;;;;;;;24.95;4.15;;;;;;;-142.57;31.65;115900.28;6247325;23;20061;-80
2023/07/17 08:28:20;;;;;;;17.83;4.28;;;;;;;-142.57;32.08;115900.28;6220286;23;20012;-84
2023/07/17 08:30:46;;;;;;;26.10;3.97;;;;;;;-142.57;31.79;115900.28;6245778;23;20008;-82
2023/07/17 08:33:12;;;;;;;16.67;4.13;;;;;;;-142.57;32.08;115900.28;6247289;23;20008;-85
2023/07/17 08:35:37;;;;;;;17.38;4.57;;;;;;;-142.57;32.36;115900.28;6247072;23;20322;-81
2023/07/17 08:38:04;;;;;;;16.42;4.55;;;;;;;-142.57;31.61;115900.28;6246235;23;19996;-81
2023/07/17 08:40:32;;;;;;;20.83;4.40;;;;;;;-142.57;32.62;115900.28;6246148;23;20083;-82
2023/07/17 08:43:00;;;;;;;14.70;3.90;;;;;;;-142.57;32.15;115900.28;6246395;23;20374;-86
2023/07/17 08:45:29;;;;;;;15.18;4.07;;;;;;;-142.57;30.86;115900.28;6246217;23;20166;-82
2023/07/17 08:47:55;;;;;;;16.85;4.47;;;;;;;-142.57;30.96;115900.28;6219668;23;20011;-84
2023/07/17 08:50:21;;;;;;;13.85;3.83;;;;;;;-142.57;30.41;115900.28;6249929;23;20055;-82
2023/07/17 08:52:48;;;;;;;14.82;3.88;;;;;;;-142.57;31.61;115900.28;6246584;23;20447;-83
2023/07/17 08:55:13;;;;;;;10.85;3.63;;;;;;;-142.57;30.88;115900.28;6246262;23;20008;-84
2023/07/17 08:57:39;;;;;;;17.45;4.05;;;;;;;-142.57;30.17;115900.28;6246383;23;20035;-81
2023/07/17 09:00:06;;;;;;;19.58;4.38;;;;;;;-142.57;30.30;115900.28;6219242;23;20018;-85
2023/07/17 09:02:33;;;;;;;16.83;3.70;;;;;;;-142.57;29.80;115900.28;6246656;23;20000;-84
2023/07/17 09:04:58;;;;;;;15.73;3.83;;;;;;;-142.57;29.09;115900.28;6245808;23;20012;-85
2023/07/17 09:07:24;;;;;;;12.73;4.35;;;;;;;-142.57;29.26;115900.28;6246324;23;20015;-84
2023/07/17 09:10:15;;;;;;;20.23;4.30;;;;;;;-142.57;28.91;115900.28;6246013;23;20038;-83
2023/07/17 09:12:42;;;;;;;19.63;4.15;;;;;;;-142.57;29.08;115900.28;6228926;23;20012;-85
2023/07/17 09:15:09;;;;;;;16.30;4.00;;;;;;;-142.57;29.05;115900.28;6245953;23;20305;-85
2023/07/17 09:17:34;;;;;;;20.00;4.60;;;;;;;-142.57;29.21;115900.28;6246440;23;20087;-83
2023/07/17 09:20:10;;;;;;;13.18;3.53;;;;;;;-142.57;28.94;115900.28;6245602;23;20032;-83
2023/07/17 09:22:39;;;;;;;23.77;3.92;;;;;;;-142.57;29.57;115900.28;6246295;23;20087;-83
2023/07/17 09:25:06;;;;;;;15.52;3.65;;;;;;;-142.57;29.30;115900.28;6219528;23;20062;-84
2023/07/17 09:27:41;;;;;;;13.85;3.80;;;;;;;-142.57;28.45;115900.28;6246042;23;20008;-83
2023/07/17 09:30:12;;;;;;;19.25;3.95;;;;;;;-142.57;28.90;115900.28;6246278;23;20019;-83
2023/07/17 09:32:38;;;;;;;18.17;4.00;;;;;;;-142.57;29.94;115900.28;6246714;23;20012;-82
2023/07/17 09:35:05;;;;;;;11.50;3.75;;;;;;;-142.57;29.86;115900.28;6246577;23;20429;-86
2023/07/17 09:37:31;;;;;;;20.60;3.97;;;;;;;-142.57;29.69;115900.28;6246034;23;20012;-86
2023/07/17 09:40:00;;;;;;;14.82;4.15;;;;;;;-142.57;29.45;115900.28;6246359;23;20008;-84
2023/07/17 09:42:26;;;;;;;18.58;3.67;;;;;;;-142.57;28.38;115900.28;6247065;23;20432;-84
2023/07/17 09:44:52;;;;;;;20.45;4.38;;;;;;;-142.57;28.45;115900.28;6248662;23;20427;-85
2023/07/17 09:47:21;;;;;;;15.65;4.18;;;;;;;-142.57;28.61;115900.28;6253280;23;20019;-85
2023/07/17 09:49:54;;;;;;;11.52;3.70;;;;;;;-142.57;28.39;115900.28;6247666;23;20065;-84
2023/07/17 09:52:20;;;;;;;17.33;4.63;;;;;;;-142.57;28.30;115900.28;6248745;23;20499;-84
2023/07/17 09:54:48;;;;;;;12.88;3.90;;;;;;;-142.57;28.62;115900.28;6247941;23;20044;-84
2023/07/17 09:57:37;;;;;;;19.02;4.75;;;;;;;-142.57;28.37;115900.28;6247625;23;20449;-82
2023/07/17 10:00:13;;;;;;;17.30;4.30;;;;;;;-142.57;27.67;115900.28;6247430;23;20111;-86
2023/07/17 10:02:53;;;;;;;13.70;3.83;;;;;;;-142.57;28.35;115900.28;6248688;23;20320;-85
2023/07/17 10:05:19;;;;;;;13.85;4.13;;;;;;;-142.57;28.89;115900.28;6248230;23;20012;-85
2023/07/17 10:07:49;;;;;;;17.63;3.95;;;;;;;-142.57;28.96;115900.28;6221457;23;20098;-85
2023/07/17 10:10:14;;;;;;;14.93;4.00;;;;;;;-142.57;29.09;115900.28;6248471;23;20432;-85
2023/07/17 10:12:44;;;;;;;14.65;4.28;;;;;;;-142.57;28.90;115900.28;6247906;23;20025;-85
2023/07/17 10:15:11;;;;;;;15.90;3.83;;;;;;;-142.57;28.71;115900.28;6247583;23;20034;-85
2023/07/17 10:17:37;;;;;;;23.65;3.95;;;;;;;-142.57;27.80;115900.28;6247727;23;20102;-84
2023/07/17 10:20:07;;;;;;;13.27;4.03;;;;;;;-142.57;27.81;115900.28;6248428;23;20083;-86
2023/07/17 10:22:40;;;;;;;17.27;3.80;;;;;;;-142.57;27.36;115900.28;6248388;23;20448;-85
2023/07/17 10:25:18;;;;;;;19.25;4.30;;;;;;;-142.57;27.18;115900.28;6248223;23;20012;-86
2023/07/17 10:27:52;;;;;;;23.70;4.15;;;;;;;-142.57;27.29;115900.28;6248306;23;20012;-84
2023/07/17 10:30:25;;;;;;;13.48;3.58;;;;;;;-142.57;27.15;115900.28;6247771;23;20012;-85
2023/07/17 10:33:08;;;;;;;13.60;3.55;;;;;;;-142.57;26.89;115900.28;6248176;23;20016;-85
2023/07/17 10:35:55;;;;;;;13.20;4.07;;;;;;;-142.57;26.48;115900.28;6222302;23;20074;-85
2023/07/17 10:38:28;;;;;;;18.98;3.92;;;;;;;-142.57;26.99;115900.28;6222234;23;20012;-83
2023/07/17 10:41:04;;;;;;;12.63;3.80;;;;;;;-142.57;26.77;115900.28;6220889;23;20015;-85
2023/07/17 10:43:32;;;;;;;17.00;3.72;;;;;;;-142.57;27.53;115900.28;6248257;23;20008;-84
2023/07/17 10:45:59;;;;;;;14.85;4.13;;;;;;;-142.57;28.19;115900.28;6222692;23;20076;-83
2023/07/17 10:48:30;;;;;;;13.95;3.85;;;;;;;-142.57;28.33;115900.28;6223905;23;20019;-84
2023/07/17 10:50:57;;;;;;;17.35;3.88;;;;;;;-142.57;27.79;115900.28;6252162;23;20024;-82
2023/07/17 10:53:23;;;;;;;18.13;3.72;;;;;;;-142.57;28.01;115900.28;6198808;23;20005;-82
2023/07/17 10:55:49;;;;;;;13.30;3.90;;;;;;;-142.57;29.01;115900.28;6247921;23;20012;-87
2023/07/17 10:58:17;;;;;;;14.27;3.53;;;;;;;-142.57;28.09;115900.28;6248186;23;20054;-84
2023/07/17 11:00:43;;;;;;;18.30;4.60;;;;;;;-142.57;27.59;115900.28;6221130;23;20013;-85
2023/07/17 11:03:13;;;;;;;7.32;3.30;;;;;;;-142.57;27.51;115900.28;6221805;23;20481;-84